Главная страница
METAR-TAF:

METAR-TAF

Аэропорты :

Ярославль, Россия

Туношна

широта: 57-33-38N, долгота: 040-09-27E, высота над уровнем моря: 87 м

Текущие метеонаблюдения

Эта сводка был подготовлена 49 минут назад, в 21:30 UTC
Ветер 2 Узел от юго-юго-восточный
Температура -23°C
Влажность 76%
Давление 1025 hPa
Видимость 10 км и более
Нет облачности ниже 1500 м, и нет кучево-дождевой облачности

METAR: UUDL 222130Z 16001MPS CAVOK M23/M26 Q1025 R23/450248 NOSIG RMK QFE761

Время: 01:19 (22:19 UTC)

Прогноз

Эта сводка был подготовлена 2 часа и 19 минут назад, в 20:00 UTC
Прогноз действительный с 22-го 21 UTC до 23-го 21 UTC
Ветер 2 Узел переменных направлений
Видимость: 8000 м
Рассеянная облачность на высоте 4000 фута

TAF: UUDL 222000Z 2221/2321 VRB01MPS 8000 BKN040

Метеонаблюдения и прогнозы для более 4000 аэропортов (сводки METAR и TAF).

Имеющиеся станции представлены на карте желтыми и красными точками.

Чтобы увидеть название станции, наведите на нее мышь.

Затем щелкните, чтобы увидеть метеонаблюдения и метеопрогнозы.

Управление картой: чтобы увеличить масштаб, щелкните зеленые кнопки с черным крестиком; чтобы уменьшить масштаб, щелкните зеленую кнопку с тире; для просмотра соседних карт щелкайте зеленые стрелки.


METAR-TAF: